Time;durP1;ratioP1;P1;durP2;ratioP2;P2;SDS_P1;SDS_P2;PMS_P1;PMS_P2;Temp;Humidity;BMP_temperature;BMP_pressure;BME280_temperature;BME280_humidity;BME280_pressure;Samples;Min_cycle;Max_cycle;Signal;HPM_P1;HPM_P2
2024/01/03 00:00:54;;;;;;;0.40;0.40;;;21.60;58.60;;;;;;4936677;29;20451;-86
2024/01/03 00:03:23;;;;;;;3.73;0.60;;;21.70;58.60;;;;;;4934808;29;20461;-86
2024/01/03 00:05:51;;;;;;;0.73;0.60;;;21.60;58.60;;;;;;4926625;29;20465;-88
2024/01/03 00:08:26;;;;;;;0.40;0.40;;;21.60;58.60;;;;;;4938912;29;21158;-86
2024/01/03 00:10:56;;;;;;;1.60;0.40;;;21.60;58.60;;;;;;4937395;29;20458;-86
2024/01/03 00:13:59;;;;;;;0.87;0.50;;;21.60;58.60;;;;;;4932626;29;20578;-86
2024/01/03 00:16:28;;;;;;;1.00;0.50;;;21.60;58.60;;;;;;4932194;29;20454;-85
2024/01/03 00:18:59;;;;;;;1.23;0.50;;;21.60;58.70;;;;;;4940578;29;20974;-90
2024/01/03 00:21:29;;;;;;;1.60;0.60;;;21.60;58.60;;;;;;4923376;29;20554;-87
2024/01/03 00:23:59;;;;;;;0.87;0.77;;;21.60;58.60;;;;;;4928902;29;20809;-85
2024/01/03 00:26:29;;;;;;;0.50;0.50;;;21.60;58.60;;;;;;4936549;29;20977;-85
2024/01/03 00:28:59;;;;;;;0.93;0.50;;;21.60;58.60;;;;;;4937988;29;20890;-87
2024/01/03 00:31:41;;;;;;;1.03;0.60;;;21.60;58.50;;;;;;4925680;29;20486;-85
2024/01/03 00:34:30;;;;;;;0.57;0.50;;;21.60;58.50;;;;;;4928737;29;20475;-86
2024/01/03 00:36:58;;;;;;;2.00;1.03;;;21.60;58.50;;;;;;4927004;29;20471;-86
2024/01/03 00:39:28;;;;;;;0.60;0.60;;;21.60;58.50;;;;;;4930995;29;20491;-86
2024/01/03 00:41:57;;;;;;;2.37;0.73;;;21.60;58.50;;;;;;4933550;29;20467;-86
2024/01/03 00:44:25;;;;;;;1.33;0.50;;;21.60;58.50;;;;;;4938118;29;20466;-87
2024/01/03 00:46:56;;;;;;;0.60;0.50;;;21.60;58.50;;;;;;4937281;29;20576;-86
2024/01/03 00:49:25;;;;;;;0.87;0.57;;;21.60;58.50;;;;;;4927503;29;20458;-85
2024/01/03 00:51:55;;;;;;;0.67;0.40;;;21.60;58.50;;;;;;4934928;29;20464;-86
2024/01/03 00:54:25;;;;;;;0.57;0.50;;;21.50;58.50;;;;;;4928537;29;20452;-86
2024/01/03 00:56:54;;;;;;;0.53;0.40;;;21.50;58.50;;;;;;4917861;29;20471;-86
2024/01/03 00:59:22;;;;;;;0.53;0.53;;;21.50;58.50;;;;;;4935347;29;20451;-85
2024/01/03 01:01:52;;;;;;;2.33;0.50;;;21.50;58.50;;;;;;4937814;29;20549;-86
2024/01/03 01:04:22;;;;;;;0.40;0.40;;;21.50;58.50;;;;;;4917713;29;20460;-88
2024/01/03 01:06:50;;;;;;;0.53;0.53;;;21.50;58.50;;;;;;4935586;29;20490;-87
2024/01/03 01:09:18;;;;;;;0.50;0.43;;;21.50;58.40;;;;;;4933863;29;20831;-87
2024/01/03 01:11:46;;;;;;;0.70;0.40;;;21.50;58.50;;;;;;4933361;29;20530;-86
2024/01/03 01:14:14;;;;;;;0.50;0.50;;;21.50;58.50;;;;;;4947343;29;20458;-85
2024/01/03 01:16:43;;;;;;;0.50;0.50;;;21.50;58.40;;;;;;4936129;29;20480;-87
2024/01/03 01:19:11;;;;;;;2.10;0.50;;;21.40;58.50;;;;;;4931754;29;20879;-87
2024/01/03 01:21:43;;;;;;;0.80;0.73;;;21.40;58.50;;;;;;4935916;29;20462;-85
2024/01/03 01:24:11;;;;;;;0.50;0.47;;;21.40;58.50;;;;;;4925884;29;20478;-87
2024/01/03 01:26:39;;;;;;;1.17;0.60;;;21.40;58.50;;;;;;4934954;29;20919;-85
2024/01/03 01:29:07;;;;;;;0.60;0.50;;;21.40;58.50;;;;;;4930796;29;20961;-86
2024/01/03 01:31:36;;;;;;;0.40;0.40;;;21.40;58.50;;;;;;4933836;29;20450;-86
2024/01/03 01:34:04;;;;;;;0.57;0.40;;;21.40;58.60;;;;;;4934268;29;20446;-85
2024/01/03 01:36:32;;;;;;;0.40;0.40;;;21.40;58.50;;;;;;4934480;29;20510;-86
2024/01/03 01:39:03;;;;;;;0.40;0.37;;;21.40;58.50;;;;;;4935080;29;20483;-86
2024/01/03 01:41:32;;;;;;;0.40;0.40;;;21.40;58.60;;;;;;4932190;29;20510;-85
2024/01/03 01:44:00;;;;;;;2.10;0.40;;;21.40;58.50;;;;;;4934198;29;20484;-87
2024/01/03 01:46:28;;;;;;;0.50;0.50;;;21.40;58.50;;;;;;4920870;29;20470;-86
2024/01/03 01:48:57;;;;;;;0.50;0.40;;;21.30;58.50;;;;;;4934326;29;20435;-86
2024/01/03 01:51:26;;;;;;;1.00;0.60;;;21.30;58.50;;;;;;4917629;29;20529;-85
2024/01/03 01:53:54;;;;;;;0.60;0.50;;;21.30;58.50;;;;;;4937837;29;20499;-85
2024/01/03 01:56:24;;;;;;;0.40;0.40;;;21.30;58.50;;;;;;4938641;29;20530;-86
2024/01/03 01:58:52;;;;;;;0.50;0.40;;;21.30;58.50;;;;;;4922913;29;20493;-85
2024/01/03 02:01:22;;;;;;;0.40;0.33;;;21.30;58.60;;;;;;4926518;29;20484;-86
2024/01/03 02:03:51;;;;;;;1.60;0.40;;;21.30;58.50;;;;;;4938596;29;20462;-87
2024/01/03 02:06:21;;;;;;;1.30;0.57;;;21.30;58.50;;;;;;4939799;29;21320;-86
2024/01/03 02:08:50;;;;;;;0.70;0.70;;;21.30;58.50;;;;;;4931049;29;20527;-86
2024/01/03 02:11:18;;;;;;;0.40;0.40;;;21.30;58.50;;;;;;4953713;29;20453;-85
2024/01/03 02:13:48;;;;;;;0.63;0.40;;;21.30;58.50;;;;;;4956612;29;20461;-85
2024/01/03 02:16:17;;;;;;;0.60;0.40;;;21.30;58.50;;;;;;4940722;29;20527;-85
2024/01/03 02:18:46;;;;;;;1.73;0.50;;;21.30;58.50;;;;;;4946311;29;20490;-85
2024/01/03 02:21:16;;;;;;;0.43;0.40;;;21.30;58.50;;;;;;4938282;29;20445;-86
2024/01/03 02:23:44;;;;;;;1.03;0.40;;;21.30;58.50;;;;;;4938354;29;20456;-85
2024/01/03 02:26:13;;;;;;;0.60;0.57;;;21.30;58.50;;;;;;4948992;29;20451;-89
2024/01/03 02:28:56;;;;;;;0.53;0.50;;;21.30;58.50;;;;;;4937259;29;20501;-86
2024/01/03 02:31:25;;;;;;;0.40;0.40;;;21.20;58.50;;;;;;4938839;29;20775;-85
2024/01/03 02:33:53;;;;;;;0.40;0.40;;;21.20;58.50;;;;;;4937288;29;20458;-85
2024/01/03 02:36:23;;;;;;;0.63;0.63;;;21.20;58.50;;;;;;4941813;29;20437;-85
2024/01/03 02:38:53;;;;;;;0.50;0.50;;;21.20;58.50;;;;;;4918654;29;20478;-85
2024/01/03 02:41:22;;;;;;;0.70;0.30;;;21.20;58.50;;;;;;4933699;28;20447;-86
2024/01/03 02:43:50;;;;;;;0.60;0.57;;;21.20;58.50;;;;;;4936221;29;20446;-88
2024/01/03 02:46:19;;;;;;;0.50;0.30;;;21.20;58.50;;;;;;4938372;29;20486;-85
2024/01/03 02:48:47;;;;;;;0.37;0.33;;;21.20;58.50;;;;;;4937521;29;20442;-85
2024/01/03 02:51:20;;;;;;;0.40;0.30;;;21.20;58.40;;;;;;4941366;29;20449;-85
2024/01/03 02:53:49;;;;;;;0.50;0.40;;;21.20;58.50;;;;;;4939369;29;20442;-85
2024/01/03 02:56:18;;;;;;;0.67;0.50;;;21.20;58.40;;;;;;4942013;29;20830;-85
2024/01/03 02:58:46;;;;;;;0.80;0.40;;;21.20;58.40;;;;;;4921961;29;20506;-85
2024/01/03 03:01:14;;;;;;;0.40;0.40;;;21.20;58.40;;;;;;4949587;29;20442;-86
2024/01/03 03:03:43;;;;;;;0.40;0.40;;;21.10;58.40;;;;;;4933414;29;20987;-85
2024/01/03 03:06:11;;;;;;;0.70;0.30;;;21.10;58.40;;;;;;4944849;29;20972;-85
2024/01/03 03:08:39;;;;;;;0.60;0.30;;;21.10;58.40;;;;;;4937603;29;20449;-87
2024/01/03 03:11:09;;;;;;;0.30;0.30;;;21.10;58.40;;;;;;4939471;29;20469;-85
2024/01/03 03:13:37;;;;;;;0.50;0.50;;;21.10;58.40;;;;;;4942129;29;20519;-85
2024/01/03 03:16:07;;;;;;;1.13;0.50;;;21.10;58.30;;;;;;4930823;29;20454;-85
2024/01/03 03:18:36;;;;;;;0.30;0.30;;;21.10;58.40;;;;;;4936862;29;20478;-86
2024/01/03 03:21:06;;;;;;;0.60;0.40;;;21.10;58.40;;;;;;4937656;29;20453;-86
2024/01/03 03:23:35;;;;;;;0.33;0.33;;;21.10;58.30;;;;;;4934716;29;20954;-85
2024/01/03 03:26:04;;;;;;;0.30;0.30;;;21.10;58.30;;;;;;4920118;29;20472;-86
2024/01/03 03:28:34;;;;;;;0.40;0.40;;;21.10;58.30;;;;;;4936853;29;20445;-86
2024/01/03 03:31:06;;;;;;;0.33;0.33;;;21.10;58.30;;;;;;4940021;29;20582;-86
2024/01/03 03:33:34;;;;;;;0.40;0.30;;;21.10;58.20;;;;;;4955419;29;20462;-86
2024/01/03 03:36:03;;;;;;;0.50;0.37;;;21.10;58.20;;;;;;4939241;29;20964;-85
2024/01/03 03:38:31;;;;;;;0.50;0.50;;;21.10;58.20;;;;;;4945536;29;20489;-85
2024/01/03 03:40:59;;;;;;;0.40;0.30;;;21.10;58.20;;;;;;4936490;29;20459;-87
2024/01/03 03:43:28;;;;;;;0.50;0.50;;;21.10;58.20;;;;;;4935350;29;20466;-86
2024/01/03 03:46:00;;;;;;;0.40;0.30;;;21.10;58.20;;;;;;4936384;29;20446;-85
2024/01/03 03:48:28;;;;;;;0.40;0.40;;;21.10;58.20;;;;;;4934596;29;20857;-86
2024/01/03 03:50:59;;;;;;;0.37;0.30;;;21.10;58.20;;;;;;4955649;29;20890;-85
2024/01/03 03:53:27;;;;;;;0.37;0.37;;;21.10;58.20;;;;;;4938008;29;20465;-89
2024/01/03 03:55:56;;;;;;;0.47;0.30;;;21.10;58.20;;;;;;4933477;29;20461;-86
2024/01/03 03:58:24;;;;;;;0.37;0.37;;;21.00;58.20;;;;;;4935145;29;20447;-85
2024/01/03 04:00:54;;;;;;;0.40;0.40;;;21.00;58.20;;;;;;4936227;29;20497;-85
2024/01/03 04:03:24;;;;;;;0.50;0.50;;;21.00;58.20;;;;;;4918864;29;20477;-85
2024/01/03 04:05:52;;;;;;;0.40;0.30;;;21.00;58.20;;;;;;4919584;29;20557;-87
2024/01/03 04:08:22;;;;;;;0.40;0.40;;;21.00;58.20;;;;;;4921964;29;20480;-86
2024/01/03 04:10:51;;;;;;;0.30;0.30;;;21.00;58.20;;;;;;4936635;29;20446;-85
2024/01/03 04:13:19;;;;;;;0.50;0.40;;;21.00;58.20;;;;;;4927705;29;20461;-85
2024/01/03 04:15:47;;;;;;;0.40;0.40;;;21.00;58.20;;;;;;4953474;28;20461;-85
2024/01/03 04:18:15;;;;;;;0.37;0.37;;;21.00;58.20;;;;;;4955040;29;20943;-85
2024/01/03 04:20:46;;;;;;;0.40;0.40;;;21.00;58.20;;;;;;4937530;29;20977;-85
2024/01/03 04:23:14;;;;;;;0.40;0.33;;;21.00;58.20;;;;;;4947281;29;20463;-85
2024/01/03 04:25:45;;;;;;;0.30;0.30;;;21.00;58.10;;;;;;4919003;29;20946;-85
2024/01/03 04:28:13;;;;;;;0.60;0.50;;;21.00;58.20;;;;;;4945995;29;20453;-86
2024/01/03 04:30:41;;;;;;;0.50;0.33;;;21.00;58.10;;;;;;4937104;29;20933;-85
2024/01/03 04:33:10;;;;;;;0.50;0.50;;;21.00;58.20;;;;;;4953242;29;20929;-86
2024/01/03 04:35:38;;;;;;;0.90;0.33;;;21.00;58.20;;;;;;4954330;29;20445;-86
2024/01/03 04:38:08;;;;;;;0.30;0.30;;;21.00;58.20;;;;;;4955202;29;20504;-85
2024/01/03 04:40:37;;;;;;;0.40;0.40;;;20.90;58.30;;;;;;4923891;29;20489;-86
2024/01/03 04:43:05;;;;;;;0.40;0.40;;;20.90;58.20;;;;;;4935969;29;20488;-86
2024/01/03 04:45:35;;;;;;;0.50;0.30;;;20.90;58.30;;;;;;4919222;29;20431;-85
2024/01/03 04:48:04;;;;;;;0.40;0.33;;;20.90;58.20;;;;;;4935844;29;20485;-86
2024/01/03 04:50:33;;;;;;;0.50;0.50;;;20.90;58.30;;;;;;4954572;29;20558;-85
2024/01/03 04:53:01;;;;;;;0.50;0.40;;;20.90;58.20;;;;;;4954912;29;20981;-85
2024/01/03 04:55:31;;;;;;;0.50;0.40;;;20.90;58.20;;;;;;4938338;29;20838;-88
2024/01/03 04:57:59;;;;;;;0.50;0.40;;;20.90;58.20;;;;;;4940536;29;20877;-86
2024/01/03 05:00:28;;;;;;;0.40;0.40;;;20.90;58.30;;;;;;4935193;29;20477;-85
2024/01/03 05:02:57;;;;;;;0.40;0.37;;;20.90;58.30;;;;;;4946189;29;20487;-86
2024/01/03 05:05:25;;;;;;;0.40;0.40;;;20.90;58.30;;;;;;4954002;29;20439;-85
2024/01/03 05:07:54;;;;;;;0.43;0.40;;;20.90;58.30;;;;;;4951854;29;20442;-85
2024/01/03 05:10:22;;;;;;;0.40;0.40;;;20.90;58.30;;;;;;4948787;29;20448;-86
2024/01/03 05:12:52;;;;;;;0.40;0.40;;;21.00;58.20;;;;;;4912655;29;20830;-87
2024/01/03 05:15:20;;;;;;;0.60;0.40;;;21.00;58.30;;;;;;4934826;29;20490;-90
2024/01/03 05:17:48;;;;;;;0.40;0.40;;;21.00;58.30;;;;;;4916438;29;20466;-88
2024/01/03 05:20:16;;;;;;;0.30;0.30;;;21.10;58.30;;;;;;4934320;29;20478;-85
2024/01/03 05:22:45;;;;;;;0.40;0.40;;;21.10;58.30;;;;;;4933449;29;20453;-86
2024/01/03 05:25:13;;;;;;;0.60;0.40;;;21.10;58.30;;;;;;4934363;29;20453;-85
2024/01/03 05:27:41;;;;;;;0.40;0.40;;;21.20;58.20;;;;;;4940129;29;20505;-86
2024/01/03 05:30:12;;;;;;;0.43;0.40;;;21.20;58.20;;;;;;4944029;29;20477;-85
2024/01/03 05:32:40;;;;;;;0.40;0.40;;;21.20;58.20;;;;;;4925278;29;20466;-89
2024/01/03 05:35:09;;;;;;;0.40;0.40;;;21.30;58.20;;;;;;4934675;29;20462;-90
2024/01/03 05:37:37;;;;;;;0.57;0.33;;;21.30;58.20;;;;;;4934826;29;20506;-86
2024/01/03 05:40:07;;;;;;;0.50;0.50;;;21.30;58.10;;;;;;4930264;29;20479;-86
2024/01/03 05:42:35;;;;;;;0.33;0.33;;;21.40;58.10;;;;;;4933574;29;20523;-86
2024/01/03 05:45:04;;;;;;;0.97;0.37;;;21.40;58.10;;;;;;4918219;29;20512;-86
2024/01/03 05:47:33;;;;;;;0.30;0.30;;;21.40;58.10;;;;;;4933057;29;21305;-87
2024/01/03 05:50:02;;;;;;;0.50;0.50;;;21.40;58.10;;;;;;4935259;29;20445;-86
2024/01/03 05:52:30;;;;;;;0.40;0.40;;;21.50;58.10;;;;;;4934822;29;20494;-92
2024/01/03 05:55:00;;;;;;;0.47;0.33;;;21.50;58.00;;;;;;4945031;29;20482;-85
2024/01/03 05:57:30;;;;;;;0.50;0.40;;;21.50;58.00;;;;;;4943285;29;20558;-86
2024/01/03 05:59:59;;;;;;;0.50;0.40;;;21.60;57.90;;;;;;4934616;29;20483;-86
2024/01/03 06:02:27;;;;;;;0.60;0.43;;;21.60;57.90;;;;;;4933245;29;20467;-86
2024/01/03 06:04:57;;;;;;;0.40;0.40;;;21.60;57.80;;;;;;4939204;29;20478;-86
2024/01/03 06:07:26;;;;;;;0.60;0.37;;;21.60;57.80;;;;;;4926146;29;20470;-86
2024/01/03 06:09:55;;;;;;;0.30;0.30;;;21.60;57.80;;;;;;4935014;29;20451;-86
2024/01/03 06:12:23;;;;;;;0.50;0.40;;;21.60;57.70;;;;;;4941558;29;20442;-86
2024/01/03 06:14:52;;;;;;;1.07;0.40;;;21.60;57.70;;;;;;4953658;29;20494;-87
2024/01/03 06:17:20;;;;;;;0.37;0.30;;;21.60;57.70;;;;;;4911055;29;20951;-86
2024/01/03 06:19:48;;;;;;;2.40;1.33;;;21.60;57.70;;;;;;4918015;29;20474;-86
2024/01/03 06:22:18;;;;;;;0.47;0.30;;;21.60;57.70;;;;;;4925657;29;20450;-86
2024/01/03 06:24:46;;;;;;;0.50;0.30;;;21.60;57.70;;;;;;4935053;29;20450;-86
2024/01/03 06:27:14;;;;;;;0.40;0.40;;;21.60;57.60;;;;;;4938387;29;20454;-88
2024/01/03 06:29:43;;;;;;;0.40;0.30;;;21.60;57.70;;;;;;4934510;29;20517;-86
2024/01/03 06:32:14;;;;;;;0.57;0.50;;;21.60;57.70;;;;;;4949575;29;20470;-85
2024/01/03 06:34:43;;;;;;;0.40;0.40;;;21.60;57.70;;;;;;4933270;29;20497;-86
2024/01/03 06:37:11;;;;;;;0.53;0.37;;;21.60;57.70;;;;;;4948194;29;20556;-86
2024/01/03 06:39:41;;;;;;;0.30;0.30;;;21.60;57.70;;;;;;4955794;28;20430;-85
2024/01/03 06:42:09;;;;;;;0.30;0.30;;;21.60;57.70;;;;;;4938575;29;20481;-86
2024/01/03 06:44:37;;;;;;;1.00;1.00;;;21.60;57.70;;;;;;4937070;29;20446;-86
2024/01/03 06:47:05;;;;;;;0.90;0.40;;;21.60;57.70;;;;;;4934770;29;20947;-86
2024/01/03 06:49:33;;;;;;;0.50;0.33;;;21.60;57.70;;;;;;4917984;29;20455;-86
2024/01/03 06:52:02;;;;;;;0.40;0.40;;;21.60;57.70;;;;;;4936972;29;20797;-87
2024/01/03 06:54:31;;;;;;;0.40;0.40;;;21.60;57.70;;;;;;4937516;29;20447;-87
2024/01/03 06:57:00;;;;;;;0.30;0.30;;;21.60;57.70;;;;;;4938967;29;20998;-86
2024/01/03 06:59:28;;;;;;;0.43;0.40;;;21.60;57.70;;;;;;4936408;29;20472;-86
2024/01/03 07:01:57;;;;;;;0.30;0.30;;;21.60;57.70;;;;;;4943102;29;20481;-86
2024/01/03 07:04:28;;;;;;;0.40;0.30;;;21.60;57.70;;;;;;4935797;29;20486;-85
2024/01/03 07:06:56;;;;;;;0.67;0.67;;;21.60;57.70;;;;;;4954295;29;20454;-85
2024/01/03 07:09:25;;;;;;;0.93;0.30;;;21.60;57.60;;;;;;4943228;29;20451;-86
2024/01/03 07:11:54;;;;;;;0.40;0.40;;;21.60;57.60;;;;;;4922969;29;20469;-85
2024/01/03 07:14:24;;;;;;;0.40;0.40;;;21.60;57.50;;;;;;4938261;29;20466;-86
2024/01/03 07:16:52;;;;;;;0.40;0.40;;;21.60;57.60;;;;;;4931699;29;20455;-86
2024/01/03 07:19:20;;;;;;;0.30;0.30;;;21.60;57.70;;;;;;4942892;29;20525;-88
2024/01/03 07:21:48;;;;;;;0.40;0.40;;;21.60;57.70;;;;;;4936988;29;20485;-86
2024/01/03 07:24:17;;;;;;;1.00;0.30;;;21.70;57.60;;;;;;4934453;29;20485;-86
2024/01/03 07:26:45;;;;;;;0.30;0.30;;;21.70;57.60;;;;;;4937655;29;20982;-87
2024/01/03 07:29:13;;;;;;;0.40;0.40;;;21.70;57.60;;;;;;4924668;29;20561;-85
2024/01/03 07:31:43;;;;;;;0.70;0.60;;;21.70;57.50;;;;;;4946623;29;20999;-86
2024/01/03 07:34:11;;;;;;;0.40;0.37;;;21.70;57.40;;;;;;4940029;29;20466;-87
2024/01/03 07:36:40;;;;;;;0.63;0.50;;;21.70;57.40;;;;;;4941726;29;20486;-87
2024/01/03 07:39:09;;;;;;;0.70;0.40;;;21.70;57.30;;;;;;4915649;29;20462;-86
2024/01/03 07:41:38;;;;;;;0.40;0.40;;;21.70;57.30;;;;;;4937246;29;20847;-86
2024/01/03 07:44:07;;;;;;;0.60;0.60;;;21.70;57.30;;;;;;4905606;29;20464;-87
2024/01/03 07:46:35;;;;;;;0.57;0.33;;;21.70;57.30;;;;;;4930433;29;20457;-87
2024/01/03 07:49:05;;;;;;;0.40;0.40;;;21.70;57.30;;;;;;4917964;29;20467;-86
2024/01/03 07:51:38;;;;;;;0.40;0.30;;;21.70;57.30;;;;;;4925985;29;20470;-86
2024/01/03 07:54:07;;;;;;;0.40;0.30;;;21.60;57.40;;;;;;4939682;29;20455;-86
2024/01/03 07:56:36;;;;;;;0.43;0.30;;;21.70;57.40;;;;;;4936188;29;20447;-86
2024/01/03 07:59:04;;;;;;;0.90;0.30;;;21.60;57.40;;;;;;4916789;29;20482;-85
2024/01/03 08:01:33;;;;;;;0.40;0.30;;;21.60;57.50;;;;;;4933757;29;20483;-85
2024/01/03 08:04:01;;;;;;;0.50;0.40;;;21.60;57.50;;;;;;4948446;29;20806;-85
2024/01/03 08:06:31;;;;;;;0.30;0.30;;;21.60;57.60;;;;;;4928137;29;20452;-86
2024/01/03 08:08:59;;;;;;;0.40;0.40;;;21.60;57.50;;;;;;4936207;29;20443;-86
2024/01/03 08:11:28;;;;;;;0.30;0.30;;;21.60;57.60;;;;;;4935630;29;20625;-86
2024/01/03 08:13:58;;;;;;;0.50;0.30;;;21.60;57.60;;;;;;4935881;29;20538;-85
2024/01/03 08:16:26;;;;;;;0.30;0.30;;;21.60;57.60;;;;;;4923269;29;20524;-86
2024/01/03 08:18:54;;;;;;;1.10;0.33;;;21.60;57.60;;;;;;4935067;29;20546;-86
2024/01/03 08:21:23;;;;;;;0.40;0.33;;;21.60;57.60;;;;;;4936711;29;20478;-86
2024/01/03 08:23:53;;;;;;;0.63;0.50;;;21.60;57.50;;;;;;4935182;29;20888;-88
2024/01/03 08:26:22;;;;;;;0.53;0.50;;;21.60;57.50;;;;;;4918977;29;20516;-86
2024/01/03 08:28:50;;;;;;;0.40;0.40;;;21.60;57.50;;;;;;4943669;29;20495;-86
2024/01/03 08:31:19;;;;;;;0.40;0.33;;;21.60;57.50;;;;;;4936662;29;20446;-86
2024/01/03 08:33:47;;;;;;;0.40;0.40;;;21.70;57.50;;;;;;4925712;29;20459;-85
2024/01/03 08:36:16;;;;;;;0.30;0.30;;;21.70;57.30;;;;;;4924740;29;20464;-86
2024/01/03 08:38:45;;;;;;;0.80;0.60;;;21.70;57.40;;;;;;4921818;29;20490;-86
2024/01/03 08:41:16;;;;;;;0.40;0.40;;;21.70;57.40;;;;;;4932760;29;20482;-86
2024/01/03 08:43:45;;;;;;;2.30;0.37;;;21.70;57.30;;;;;;4935202;29;20467;-85
2024/01/03 08:46:14;;;;;;;0.70;0.57;;;21.70;57.30;;;;;;4935731;29;20495;-86
2024/01/03 08:48:42;;;;;;;0.67;0.57;;;21.70;57.30;;;;;;4906937;29;20486;-87
2024/01/03 08:51:13;;;;;;;0.60;0.50;;;21.70;57.40;;;;;;4936332;29;20459;-87
2024/01/03 08:53:42;;;;;;;1.70;0.70;;;21.80;57.30;;;;;;4946261;29;20459;-86
2024/01/03 08:56:16;;;;;;;0.50;0.50;;;21.80;57.30;;;;;;4926081;29;20828;-87
2024/01/03 08:58:45;;;;;;;0.50;0.50;;;21.80;57.10;;;;;;4926008;29;20458;-86
2024/01/03 09:01:17;;;;;;;0.40;0.40;;;21.80;57.10;;;;;;4932617;29;20517;-88
2024/01/03 09:03:46;;;;;;;0.50;0.50;;;21.90;57.20;;;;;;4936695;29;20458;-87
2024/01/03 09:06:18;;;;;;;0.50;0.40;;;21.90;57.00;;;;;;4936851;29;20456;-85
2024/01/03 09:08:50;;;;;;;0.50;0.40;;;21.90;56.90;;;;;;4935374;29;20833;-86
2024/01/03 09:11:25;;;;;;;0.60;0.40;;;21.90;57.00;;;;;;4935615;29;20441;-86
2024/01/03 09:13:56;;;;;;;1.63;0.50;;;21.90;57.00;;;;;;4927524;29;20471;-87
2024/01/03 09:16:26;;;;;;;0.50;0.50;;;21.90;56.90;;;;;;4935056;29;20475;-86
2024/01/03 09:18:55;;;;;;;0.83;0.40;;;21.90;56.90;;;;;;4935536;29;20810;-86
2024/01/03 09:21:24;;;;;;;0.57;0.53;;;21.80;57.00;;;;;;4929884;29;20478;-86
2024/01/03 09:23:52;;;;;;;0.40;0.40;;;21.80;57.00;;;;;;4940760;29;20480;-86
2024/01/03 09:26:23;;;;;;;0.90;0.60;;;21.80;57.10;;;;;;4937123;29;20451;-86
2024/01/03 09:28:53;;;;;;;0.97;0.70;;;21.80;57.10;;;;;;4936339;29;20491;-88
2024/01/03 09:31:21;;;;;;;0.50;0.50;;;21.80;57.20;;;;;;4919260;29;20485;-86
2024/01/03 09:33:49;;;;;;;0.90;0.60;;;21.80;57.30;;;;;;4924312;29;20471;-86
2024/01/03 09:36:19;;;;;;;0.63;0.63;;;21.80;57.30;;;;;;4934543;29;20467;-88
2024/01/03 09:38:54;;;;;;;0.70;0.70;;;21.80;57.30;;;;;;4921642;29;20447;-86
2024/01/03 09:41:24;;;;;;;4.13;0.90;;;21.80;57.40;;;;;;4918654;29;20467;-88
2024/01/03 09:43:55;;;;;;;0.87;0.80;;;21.80;57.40;;;;;;4938349;29;20519;-87
2024/01/03 09:46:24;;;;;;;1.97;0.83;;;21.80;57.40;;;;;;4942677;29;20545;-85
2024/01/03 09:48:52;;;;;;;0.70;0.70;;;21.80;57.40;;;;;;4936892;29;20450;-89
2024/01/03 09:51:21;;;;;;;1.90;0.50;;;21.80;57.50;;;;;;4926914;29;20965;-87
2024/01/03 09:53:53;;;;;;;1.50;0.50;;;21.80;57.40;;;;;;4940757;29;20818;-88
2024/01/03 09:56:22;;;;;;;0.57;0.57;;;21.80;57.50;;;;;;4918586;29;20519;-86
2024/01/03 09:58:51;;;;;;;1.60;0.90;;;21.80;57.50;;;;;;4932294;29;20899;-85
2024/01/03 10:01:20;;;;;;;1.77;0.60;;;21.80;57.50;;;;;;4923515;29;20491;-86
2024/01/03 10:03:48;;;;;;;3.43;0.80;;;21.80;57.40;;;;;;4937887;29;20483;-84
2024/01/03 10:06:16;;;;;;;1.67;0.63;;;21.80;57.30;;;;;;4934424;29;20452;-85
2024/01/03 10:08:58;;;;;;;1.10;0.70;;;21.80;57.40;;;;;;4934796;29;20894;-85
2024/01/03 10:11:27;;;;;;;1.50;0.93;;;21.90;57.30;;;;;;4942290;29;20592;-85
2024/01/03 10:14:13;;;;;;;0.90;0.90;;;21.90;57.40;;;;;;4936598;29;21018;-84
2024/01/03 10:16:43;;;;;;;0.50;0.50;;;21.80;57.40;;;;;;4941878;29;20454;-84
2024/01/03 10:19:13;;;;;;;1.00;0.83;;;21.90;57.50;;;;;;4913395;29;20467;-84
2024/01/03 10:21:52;;;;;;;1.90;1.20;;;21.90;57.40;;;;;;4938300;29;20467;-84
2024/01/03 10:24:23;;;;;;;1.07;1.00;;;21.90;57.30;;;;;;4940326;29;20510;-83
2024/01/03 10:26:52;;;;;;;1.00;0.80;;;22.00;57.40;;;;;;4939556;29;20500;-83
2024/01/03 10:29:22;;;;;;;0.87;0.80;;;22.00;57.30;;;;;;4937542;29;20485;-83
2024/01/03 10:31:51;;;;;;;1.10;1.00;;;22.10;57.30;;;;;;4929534;29;20454;-84
2024/01/03 10:34:24;;;;;;;2.23;0.80;;;22.00;57.60;;;;;;4929079;29;20480;-85
2024/01/03 10:36:55;;;;;;;0.63;0.60;;;22.10;57.50;;;;;;4930860;29;20550;-84
2024/01/03 10:39:25;;;;;;;1.43;0.80;;;22.10;57.50;;;;;;4928380;29;20471;-84
2024/01/03 10:41:54;;;;;;;0.80;0.80;;;22.00;57.20;;;;;;4925835;29;20465;-86
2024/01/03 10:44:25;;;;;;;2.10;0.87;;;22.00;57.20;;;;;;4932751;29;20487;-87
2024/01/03 10:46:54;;;;;;;1.57;0.90;;;22.00;57.20;;;;;;4934404;29;20935;-85
2024/01/03 10:49:23;;;;;;;1.27;0.87;;;22.00;57.20;;;;;;4930246;29;20486;-87
2024/01/03 10:52:01;;;;;;;1.43;0.90;;;22.00;57.20;;;;;;4928417;29;20460;-84
2024/01/03 10:54:39;;;;;;;1.53;1.30;;;22.00;57.30;;;;;;4933405;29;20459;-83
2024/01/03 10:57:08;;;;;;;0.87;0.77;;;22.00;57.20;;;;;;4926389;29;20542;-86
2024/01/03 10:59:53;;;;;;;1.57;1.27;;;22.00;57.10;;;;;;4933289;29;20478;-84
2024/01/03 11:02:27;;;;;;;0.90;0.73;;;21.90;57.10;;;;;;4931590;29;20513;-85
2024/01/03 11:05:02;;;;;;;1.07;0.87;;;21.90;57.20;;;;;;4931410;29;20461;-88
2024/01/03 11:07:37;;;;;;;1.00;0.90;;;21.90;57.30;;;;;;4937265;29;20466;-85
2024/01/03 11:10:06;;;;;;;1.43;0.73;;;21.90;57.50;;;;;;4932897;29;20514;-84
2024/01/03 11:12:35;;;;;;;1.63;0.97;;;21.80;57.50;;;;;;4936461;29;20491;-85
2024/01/03 11:15:25;;;;;;;0.80;0.80;;;21.80;57.30;;;;;;4933868;29;20555;-84
2024/01/03 11:18:11;;;;;;;1.30;0.90;;;21.80;57.40;;;;;;4935456;29;20584;-84
2024/01/03 11:20:39;;;;;;;3.70;1.03;;;21.80;57.40;;;;;;4934338;29;20525;-84
2024/01/03 11:23:08;;;;;;;0.77;0.63;;;21.80;57.50;;;;;;4935206;29;20578;-89
2024/01/03 11:25:48;;;;;;;2.20;1.20;;;21.80;57.50;;;;;;4918213;29;20456;-84
2024/01/03 11:28:32;;;;;;;1.13;0.93;;;21.80;57.50;;;;;;4931988;29;20462;-85
2024/01/03 11:31:02;;;;;;;1.13;0.93;;;21.80;57.60;;;;;;4933316;29;20894;-86
2024/01/03 11:33:31;;;;;;;3.97;0.77;;;21.80;57.70;;;;;;4934078;29;20514;-85
2024/01/03 11:36:01;;;;;;;2.90;0.90;;;21.80;57.60;;;;;;4917629;29;20881;-88
2024/01/03 11:38:39;;;;;;;2.93;0.97;;;21.80;57.60;;;;;;4930240;29;20834;-84
2024/01/03 11:41:08;;;;;;;3.23;1.40;;;21.90;57.60;;;;;;4935317;29;20479;-85
2024/01/03 11:43:36;;;;;;;2.37;1.20;;;22.00;57.70;;;;;;4932981;29;20472;-86
2024/01/03 11:46:10;;;;;;;2.30;1.03;;;22.20;57.60;;;;;;4929288;29;20529;-82
2024/01/03 11:48:38;;;;;;;2.00;0.83;;;22.30;57.30;;;;;;4926949;29;20666;-82
2024/01/03 11:51:22;;;;;;;4.53;1.40;;;22.40;57.10;;;;;;4932238;29;20573;-86
2024/01/03 11:53:51;;;;;;;3.07;1.53;;;22.40;57.10;;;;;;4936436;29;20477;-83
2024/01/03 11:56:27;;;;;;;1.30;0.87;;;22.50;57.00;;;;;;4933495;29;20464;-83
2024/01/03 11:58:57;;;;;;;6.03;1.67;;;22.50;57.10;;;;;;4932661;29;20464;-87
2024/01/03 12:01:27;;;;;;;5.40;1.33;;;22.50;57.00;;;;;;4935977;29;20989;-84
2024/01/03 12:04:09;;;;;;;5.17;1.17;;;22.50;57.10;;;;;;4936203;29;20523;-85
2024/01/03 12:06:37;;;;;;;2.50;0.90;;;22.50;57.10;;;;;;4915743;29;20471;-84
2024/01/03 12:09:06;;;;;;;5.20;1.40;;;22.50;57.30;;;;;;4937893;29;20480;-86
2024/01/03 12:11:36;;;;;;;4.70;1.17;;;22.50;57.40;;;;;;4915597;29;20467;-86
2024/01/03 12:14:05;;;;;;;1.10;0.90;;;22.40;57.30;;;;;;4932093;29;20803;-84
2024/01/03 12:16:46;;;;;;;3.10;1.20;;;22.40;57.40;;;;;;4898643;29;20460;-85
2024/01/03 12:19:23;;;;;;;5.60;1.10;;;22.40;57.30;;;;;;4929990;29;20502;-87
2024/01/03 12:21:55;;;;;;;2.20;1.33;;;22.30;57.40;;;;;;4927701;29;20513;-82
2024/01/03 12:24:37;;;;;;;4.90;1.23;;;22.30;57.40;;;;;;4929004;29;20488;-88
2024/01/03 12:27:09;;;;;;;2.93;1.30;;;22.30;57.50;;;;;;4936826;29;20462;-87
2024/01/03 12:29:39;;;;;;;2.73;1.00;;;22.20;57.50;;;;;;4926139;29;20583;-84
2024/01/03 12:32:15;;;;;;;5.00;1.40;;;22.20;57.60;;;;;;4931572;29;20487;-85
2024/01/03 12:34:45;;;;;;;1.93;1.30;;;22.20;57.70;;;;;;4916424;29;20452;-85
2024/01/03 12:37:13;;;;;;;2.40;1.00;;;22.10;57.70;;;;;;4929137;29;20463;-84
2024/01/03 12:39:42;;;;;;;3.33;1.43;;;22.10;57.80;;;;;;4933407;29;20448;-87
2024/01/03 12:42:12;;;;;;;4.00;1.10;;;22.10;57.80;;;;;;4927371;29;20490;-87
2024/01/03 12:44:43;;;;;;;1.43;1.10;;;22.10;57.90;;;;;;4931223;29;20471;-86
2024/01/03 12:47:13;;;;;;;3.80;1.40;;;22.00;58.00;;;;;;4933801;29;20527;-85
2024/01/03 12:49:43;;;;;;;2.90;1.10;;;22.00;58.20;;;;;;4939005;29;20491;-84
2024/01/03 12:52:11;;;;;;;4.80;1.20;;;22.00;58.10;;;;;;4931015;29;20488;-85
2024/01/03 12:54:40;;;;;;;1.10;1.00;;;22.00;58.00;;;;;;4937302;29;20813;-85
2024/01/03 12:57:08;;;;;;;2.50;1.23;;;22.00;58.00;;;;;;4937264;29;20521;-84
2024/01/03 12:59:38;;;;;;;11.87;2.10;;;22.00;58.00;;;;;;4932513;29;20454;-85
2024/01/03 13:02:08;;;;;;;3.83;0.97;;;22.00;57.90;;;;;;4934203;29;21061;-87